Time;durP1;ratioP1;P1;durP2;ratioP2;P2;SDS_P1;SDS_P2;PMS_P1;PMS_P2;Temp;Humidity;BMP_temperature;BMP_pressure;BME280_temperature;BME280_humidity;BME280_pressure;Samples;Min_cycle;Max_cycle;Signal;HPM_P1;HPM_P2
2021/12/06 00:01:22;;;;;;;2.35;1.98;;;4.80;99.90;;;;;;5110401;27;20308;-63
2021/12/06 00:03:52;;;;;;;2.47;1.55;;;4.80;99.90;;;;;;5107405;28;20280;-65
2021/12/06 00:06:21;;;;;;;2.30;2.20;;;4.70;99.90;;;;;;5106241;28;20439;-64
2021/12/06 00:08:48;;;;;;;2.00;1.90;;;4.70;99.90;;;;;;5106795;27;20258;-66
2021/12/06 00:11:16;;;;;;;1.63;1.52;;;4.70;99.90;;;;;;5105604;28;20254;-65
2021/12/06 00:13:45;;;;;;;1.25;1.15;;;4.60;99.90;;;;;;5106471;28;20214;-64
2021/12/06 00:16:18;;;;;;;1.70;1.52;;;4.60;99.90;;;;;;5106105;28;20581;-63
2021/12/06 00:18:46;;;;;;;2.92;2.65;;;4.60;99.90;;;;;;5105949;28;20425;-65
2021/12/06 00:21:13;;;;;;;2.42;2.30;;;4.60;99.90;;;;;;5105194;28;20221;-65
2021/12/06 00:23:40;;;;;;;1.40;1.30;;;4.50;99.90;;;;;;5106260;28;20271;-63
2021/12/06 00:26:08;;;;;;;3.17;1.73;;;4.50;99.90;;;;;;5108629;27;20221;-63
2021/12/06 00:28:37;;;;;;;1.75;1.65;;;4.50;99.90;;;;;;5109701;27;20276;-68
2021/12/06 00:31:04;;;;;;;1.65;1.35;;;4.50;99.90;;;;;;5115353;27;20228;-66
2021/12/06 00:33:31;;;;;;;1.90;1.63;;;4.50;99.90;;;;;;5107123;28;20237;-64
2021/12/06 00:36:03;;;;;;;1.60;1.10;;;4.50;99.90;;;;;;5105983;28;20289;-63
2021/12/06 00:38:31;;;;;;;2.25;1.77;;;4.50;99.90;;;;;;5107669;28;20209;-64
2021/12/06 00:40:59;;;;;;;5.35;2.03;;;4.50;99.90;;;;;;5106186;28;20656;-63
2021/12/06 00:43:25;;;;;;;1.38;1.15;;;4.50;99.90;;;;;;5108742;28;20223;-63
2021/12/06 00:45:53;;;;;;;1.40;1.30;;;4.40;99.90;;;;;;5105533;28;20217;-64
2021/12/06 00:48:20;;;;;;;1.80;1.30;;;4.40;99.90;;;;;;5106550;28;20213;-63
2021/12/06 00:50:47;;;;;;;2.25;1.35;;;4.40;99.90;;;;;;5106558;28;20201;-64
2021/12/06 00:53:14;;;;;;;1.30;1.20;;;4.40;99.90;;;;;;5107442;28;20211;-64
2021/12/06 00:55:40;;;;;;;1.75;1.20;;;4.30;99.90;;;;;;5105577;28;20455;-63
2021/12/06 00:58:07;;;;;;;1.20;1.10;;;4.30;99.90;;;;;;5106301;28;20686;-63
2021/12/06 01:00:37;;;;;;;1.20;1.10;;;4.30;99.90;;;;;;5101155;28;20257;-63
2021/12/06 01:03:07;;;;;;;1.17;1.08;;;4.20;99.90;;;;;;5108313;27;20292;-64
2021/12/06 01:05:35;;;;;;;2.25;2.08;;;4.20;99.90;;;;;;5092357;28;20267;-63
2021/12/06 01:08:02;;;;;;;1.70;1.60;;;4.10;99.90;;;;;;5106173;28;20215;-65
2021/12/06 01:10:30;;;;;;;1.50;1.40;;;4.10;99.90;;;;;;5106117;28;20262;-65
2021/12/06 01:12:58;;;;;;;2.20;1.63;;;4.00;99.90;;;;;;5106533;28;20200;-65
2021/12/06 01:15:26;;;;;;;3.40;2.33;;;4.00;99.90;;;;;;5106566;28;20317;-65
2021/12/06 01:17:53;;;;;;;2.28;1.90;;;4.00;99.90;;;;;;5106096;28;20227;-64
2021/12/06 01:20:26;;;;;;;2.95;1.85;;;4.00;99.90;;;;;;5106222;28;20269;-65
2021/12/06 01:22:57;;;;;;;2.10;1.55;;;4.00;99.90;;;;;;5106445;28;20278;-65
2021/12/06 01:25:32;;;;;;;2.88;2.08;;;4.00;99.90;;;;;;5106103;28;20198;-65
2021/12/06 01:33:42;;;;;;;2.42;1.90;;;4.10;99.90;;;;;;5108660;28;20283;-65
2021/12/06 01:39:12;;;;;;;4.22;2.70;;;4.00;99.90;;;;;;5031203;28;20211;-62
2021/12/06 01:41:42;;;;;;;1.63;1.40;;;4.10;99.90;;;;;;5082352;28;20300;-63
2021/12/06 01:44:13;;;;;;;2.42;1.88;;;4.10;99.90;;;;;;5106913;28;20205;-63
2021/12/06 01:46:44;;;;;;;2.95;2.33;;;4.10;99.90;;;;;;5106623;28;20223;-63
2021/12/06 01:49:11;;;;;;;2.03;1.83;;;4.10;99.90;;;;;;5105593;28;20445;-63
2021/12/06 01:51:40;;;;;;;2.42;2.28;;;4.10;99.90;;;;;;5106798;28;20644;-63
2021/12/06 01:54:09;;;;;;;4.82;2.47;;;4.10;99.90;;;;;;5115169;28;20230;-65
2021/12/06 01:56:36;;;;;;;2.47;2.25;;;4.10;99.90;;;;;;5109727;28;20228;-64
2021/12/06 01:59:04;;;;;;;2.70;2.50;;;4.10;99.90;;;;;;5108970;28;20204;-63
2021/12/06 02:01:32;;;;;;;7.68;2.25;;;4.00;99.90;;;;;;5111533;27;20285;-63
2021/12/06 02:03:59;;;;;;;2.53;2.33;;;4.00;99.90;;;;;;5111134;28;20233;-63
2021/12/06 02:06:26;;;;;;;2.50;2.30;;;3.90;99.90;;;;;;5111209;28;20300;-63
2021/12/06 02:08:54;;;;;;;2.20;2.00;;;3.80;99.90;;;;;;5110125;28;20197;-65
2021/12/06 02:11:24;;;;;;;2.42;2.22;;;3.80;99.90;;;;;;5110555;28;20201;-65
2021/12/06 02:13:56;;;;;;;2.90;2.70;;;3.70;99.90;;;;;;5111076;28;20215;-63
2021/12/06 02:16:32;;;;;;;2.75;2.50;;;3.60;99.90;;;;;;5110773;28;20216;-63
2021/12/06 02:19:03;;;;;;;4.22;2.80;;;3.60;99.90;;;;;;5111670;28;20324;-63
2021/12/06 02:21:34;;;;;;;2.65;2.45;;;3.60;99.90;;;;;;5109908;28;20655;-63
2021/12/06 02:24:03;;;;;;;3.20;3.00;;;3.60;99.90;;;;;;5110272;28;20234;-63
2021/12/06 02:26:30;;;;;;;2.15;1.70;;;3.60;99.90;;;;;;5108152;28;20342;-63
2021/12/06 02:28:57;;;;;;;2.17;1.98;;;3.60;99.90;;;;;;5108721;27;20636;-63
2021/12/06 02:31:26;;;;;;;4.30;3.60;;;3.60;99.90;;;;;;5109416;28;20253;-62
2021/12/06 02:33:54;;;;;;;2.83;2.63;;;3.50;99.90;;;;;;5124705;27;20269;-63
2021/12/06 02:36:22;;;;;;;2.83;2.63;;;3.50;99.90;;;;;;5109239;28;20219;-63
2021/12/06 02:38:50;;;;;;;2.65;2.42;;;3.50;99.90;;;;;;5109726;28;20202;-63
2021/12/06 02:41:18;;;;;;;2.63;2.42;;;3.50;99.90;;;;;;5109003;28;20622;-63
2021/12/06 02:43:45;;;;;;;2.65;2.25;;;3.50;99.90;;;;;;5110587;28;20220;-63
2021/12/06 02:46:12;;;;;;;2.47;1.95;;;3.60;99.90;;;;;;5106614;28;20235;-65
2021/12/06 02:48:39;;;;;;;4.13;3.78;;;3.60;99.90;;;;;;5108927;28;20236;-65
2021/12/06 02:51:08;;;;;;;2.78;2.42;;;3.60;99.90;;;;;;5109232;28;20293;-65
2021/12/06 02:53:36;;;;;;;2.47;2.28;;;3.60;99.90;;;;;;5110464;28;20214;-65
2021/12/06 02:56:17;;;;;;;2.97;2.67;;;3.60;99.90;;;;;;5107932;28;20538;-65
2021/12/06 02:58:56;;;;;;;2.65;2.08;;;3.60;99.90;;;;;;5108956;28;20677;-63
2021/12/06 03:01:27;;;;;;;6.25;2.70;;;3.60;99.90;;;;;;5109224;28;20277;-63
2021/12/06 03:03:54;;;;;;;3.30;3.00;;;3.50;99.90;;;;;;5109123;28;20283;-65
2021/12/06 03:06:21;;;;;;;3.95;2.33;;;3.50;99.90;;;;;;5109138;28;20753;-63
2021/12/06 03:08:53;;;;;;;2.95;2.75;;;3.60;99.90;;;;;;5105788;28;20641;-63
2021/12/06 03:11:29;;;;;;;2.25;2.05;;;3.60;99.90;;;;;;5108137;28;20202;-63
2021/12/06 03:13:56;;;;;;;3.03;2.70;;;3.60;99.90;;;;;;5123183;27;20238;-63
2021/12/06 03:16:24;;;;;;;1.70;1.60;;;3.60;99.90;;;;;;5108196;28;20284;-62
2021/12/06 03:18:52;;;;;;;2.20;2.10;;;3.60;99.90;;;;;;5116902;27;20263;-65
2021/12/06 03:21:20;;;;;;;1.98;1.67;;;3.60;99.90;;;;;;5102923;28;20219;-65
2021/12/06 03:23:48;;;;;;;2.53;2.38;;;3.70;99.90;;;;;;5104137;28;20782;-63
2021/12/06 03:26:15;;;;;;;2.55;1.80;;;3.70;99.90;;;;;;5107023;28;20229;-64
2021/12/06 03:28:45;;;;;;;3.00;2.35;;;3.70;99.90;;;;;;5108777;28;20223;-65
2021/12/06 03:31:13;;;;;;;2.75;2.55;;;3.80;99.90;;;;;;5108479;28;20713;-65
2021/12/06 03:33:43;;;;;;;3.78;2.90;;;3.80;99.90;;;;;;5107653;28;20225;-64
2021/12/06 03:36:12;;;;;;;4.38;2.75;;;3.80;99.90;;;;;;5108435;28;20220;-63
2021/12/06 03:38:39;;;;;;;3.00;2.40;;;3.80;99.90;;;;;;5107901;27;20269;-63
2021/12/06 03:41:07;;;;;;;3.78;3.00;;;3.80;99.90;;;;;;5108814;28;20277;-63
2021/12/06 03:43:36;;;;;;;3.65;3.25;;;3.80;99.90;;;;;;5108347;28;20222;-65
2021/12/06 03:46:04;;;;;;;3.28;2.97;;;3.80;99.90;;;;;;5107492;28;20231;-65
2021/12/06 03:48:31;;;;;;;2.97;1.95;;;3.90;99.90;;;;;;5108770;28;20622;-63
2021/12/06 03:50:59;;;;;;;2.88;2.60;;;3.90;99.90;;;;;;5107734;27;20248;-62
2021/12/06 03:53:26;;;;;;;2.20;2.00;;;3.90;99.90;;;;;;5112588;27;20276;-65
2021/12/06 03:55:53;;;;;;;2.55;2.28;;;3.90;99.90;;;;;;5110621;28;20228;-62
2021/12/06 03:58:20;;;;;;;2.83;2.50;;;3.90;99.90;;;;;;5106442;28;20200;-65
2021/12/06 04:00:47;;;;;;;2.92;2.45;;;3.90;99.90;;;;;;5107869;28;20289;-63
2021/12/06 04:03:16;;;;;;;3.05;2.85;;;3.90;99.90;;;;;;5107613;28;20224;-63
2021/12/06 04:05:42;;;;;;;3.05;2.85;;;3.90;99.90;;;;;;5100625;28;20201;-62
2021/12/06 04:08:09;;;;;;;1.95;1.75;;;3.90;99.90;;;;;;5107047;28;20210;-64
2021/12/06 04:10:36;;;;;;;2.45;2.15;;;3.90;99.90;;;;;;5103951;28;20192;-63
2021/12/06 04:13:03;;;;;;;6.38;2.90;;;3.90;99.90;;;;;;5113839;27;20343;-62
2021/12/06 04:15:31;;;;;;;5.15;3.30;;;3.90;99.90;;;;;;5106765;28;20216;-62
2021/12/06 04:17:58;;;;;;;4.57;3.00;;;3.80;99.90;;;;;;5108785;28;20227;-63
2021/12/06 04:20:26;;;;;;;3.25;2.30;;;3.70;99.90;;;;;;5108241;28;20242;-64
2021/12/06 04:22:54;;;;;;;2.22;2.03;;;3.60;99.90;;;;;;5107319;28;20541;-63
2021/12/06 04:25:21;;;;;;;2.70;2.50;;;3.60;99.90;;;;;;5108629;28;20203;-63
2021/12/06 04:27:53;;;;;;;2.75;2.55;;;3.50;99.90;;;;;;5109453;28;20311;-63
2021/12/06 04:30:22;;;;;;;4.68;2.95;;;3.50;99.90;;;;;;5109135;28;20200;-63
2021/12/06 04:32:50;;;;;;;3.22;2.88;;;3.50;99.90;;;;;;5105056;27;20703;-63
2021/12/06 04:35:18;;;;;;;2.97;2.55;;;3.50;99.90;;;;;;5107886;28;20292;-63
2021/12/06 04:37:46;;;;;;;5.00;2.50;;;3.50;99.90;;;;;;5107945;28;20225;-64
2021/12/06 04:40:13;;;;;;;4.70;3.22;;;3.50;99.90;;;;;;5108010;28;20587;-64
2021/12/06 04:42:41;;;;;;;3.08;2.80;;;3.60;99.90;;;;;;5106611;28;20214;-64
2021/12/06 04:45:08;;;;;;;12.43;3.25;;;3.60;99.90;;;;;;5103729;28;20304;-63
2021/12/06 04:47:35;;;;;;;2.17;1.98;;;3.60;99.90;;;;;;5108531;28;20359;-64
2021/12/06 04:50:02;;;;;;;2.65;2.45;;;3.60;99.90;;;;;;5103104;28;20205;-63
2021/12/06 04:52:29;;;;;;;2.20;2.08;;;3.60;99.90;;;;;;5107072;28;20199;-64
2021/12/06 04:54:59;;;;;;;2.03;1.80;;;3.60;99.90;;;;;;5101108;28;20617;-63
2021/12/06 04:57:31;;;;;;;3.47;2.95;;;3.60;99.90;;;;;;5106758;28;20220;-63
2021/12/06 05:00:01;;;;;;;5.53;2.90;;;3.70;99.90;;;;;;5106284;28;20275;-62
2021/12/06 05:02:34;;;;;;;4.30;4.00;;;3.70;99.90;;;;;;5102039;28;20217;-64
2021/12/06 05:05:05;;;;;;;3.33;2.60;;;3.70;99.90;;;;;;5096849;28;20309;-64
2021/12/06 05:07:39;;;;;;;2.88;2.63;;;3.80;99.90;;;;;;5097990;28;20566;-64
2021/12/06 05:10:10;;;;;;;3.47;3.20;;;3.80;99.90;;;;;;5110296;27;20222;-64
2021/12/06 05:12:36;;;;;;;2.17;1.98;;;3.90;99.90;;;;;;5106795;28;20203;-64
2021/12/06 05:15:05;;;;;;;5.75;3.42;;;3.90;99.90;;;;;;5107321;28;20266;-64
2021/12/06 05:17:32;;;;;;;2.50;2.30;;;3.90;99.90;;;;;;5102977;28;20640;-63
2021/12/06 05:19:59;;;;;;;3.55;3.30;;;3.90;99.90;;;;;;5111520;28;20203;-64
2021/12/06 05:22:26;;;;;;;4.10;3.58;;;3.90;99.90;;;;;;5112426;28;20507;-62
2021/12/06 05:24:54;;;;;;;4.07;3.17;;;3.90;99.90;;;;;;5110887;28;20215;-64
2021/12/06 05:27:27;;;;;;;3.58;2.65;;;3.80;99.90;;;;;;5107790;28;20220;-64
2021/12/06 05:29:58;;;;;;;2.63;2.42;;;3.80;99.90;;;;;;5106469;28;20331;-64
2021/12/06 05:32:26;;;;;;;2.40;2.20;;;3.80;99.90;;;;;;5095011;28;20290;-64
2021/12/06 05:35:00;;;;;;;4.47;4.07;;;3.80;99.90;;;;;;5106858;28;20228;-66
2021/12/06 05:37:27;;;;;;;3.60;3.30;;;3.80;99.90;;;;;;5106229;28;20696;-65
2021/12/06 05:39:55;;;;;;;4.22;3.83;;;3.70;99.90;;;;;;5105667;28;20200;-65
2021/12/06 05:42:24;;;;;;;3.85;3.00;;;3.70;99.90;;;;;;5104973;28;20234;-65
2021/12/06 05:44:51;;;;;;;2.08;1.98;;;3.70;99.90;;;;;;5107316;28;20209;-64
2021/12/06 05:47:17;;;;;;;2.53;2.35;;;3.60;99.90;;;;;;5106913;28;20234;-63
2021/12/06 05:49:44;;;;;;;3.08;2.88;;;3.60;99.90;;;;;;5093796;22;20229;-67
2021/12/06 05:52:11;;;;;;;2.40;2.25;;;3.50;99.90;;;;;;5065540;28;20202;-67
2021/12/06 05:54:38;;;;;;;2.33;2.13;;;3.50;99.90;;;;;;5059197;28;20201;-68
2021/12/06 05:57:12;;;;;;;3.38;3.05;;;3.40;99.90;;;;;;5062171;28;20226;-69
2021/12/06 05:59:40;;;;;;;4.18;2.85;;;3.40;99.90;;;;;;5062901;28;20218;-69
2021/12/06 06:02:07;;;;;;;2.67;2.45;;;3.30;99.90;;;;;;5066188;28;20204;-68
2021/12/06 06:04:34;;;;;;;3.10;2.90;;;3.30;99.90;;;;;;5066222;28;20224;-69
2021/12/06 06:07:01;;;;;;;2.45;2.22;;;3.20;99.90;;;;;;5066237;28;20209;-68
2021/12/06 06:09:28;;;;;;;6.10;3.92;;;3.10;99.90;;;;;;5068321;28;20229;-68
2021/12/06 06:11:54;;;;;;;3.60;3.30;;;3.10;99.90;;;;;;5064127;28;20202;-69
2021/12/06 06:14:21;;;;;;;3.70;3.20;;;3.00;99.90;;;;;;5066920;28;20756;-68
2021/12/06 06:16:51;;;;;;;3.42;3.05;;;2.90;99.90;;;;;;5063330;28;20197;-66
2021/12/06 06:19:20;;;;;;;3.88;2.33;;;2.80;99.90;;;;;;5059498;28;20220;-66
2021/12/06 06:21:47;;;;;;;4.93;3.50;;;2.70;99.90;;;;;;5060823;28;20209;-67
2021/12/06 06:24:14;;;;;;;3.33;3.00;;;2.70;99.90;;;;;;5063441;28;20677;-67
2021/12/06 06:26:40;;;;;;;6.25;3.10;;;2.60;99.90;;;;;;5062187;28;20297;-67
2021/12/06 06:29:08;;;;;;;4.88;4.05;;;2.60;99.90;;;;;;5062409;28;20266;-64
2021/12/06 06:31:36;;;;;;;3.08;2.65;;;2.60;99.90;;;;;;5079165;28;20272;-68
2021/12/06 06:34:05;;;;;;;2.97;2.78;;;2.70;99.90;;;;;;5049598;28;20204;-69
2021/12/06 06:36:31;;;;;;;2.08;1.98;;;2.70;99.90;;;;;;5067964;28;20206;-68
2021/12/06 06:38:58;;;;;;;3.88;3.47;;;2.70;99.90;;;;;;5068122;28;20228;-68
2021/12/06 06:41:30;;;;;;;3.25;2.95;;;2.80;99.90;;;;;;5071170;28;20663;-69
2021/12/06 06:43:56;;;;;;;3.95;3.50;;;2.70;99.90;;;;;;5064997;28;20232;-69
2021/12/06 06:46:23;;;;;;;2.92;2.70;;;2.70;99.90;;;;;;5068223;28;20739;-68
2021/12/06 06:48:50;;;;;;;2.83;2.63;;;2.70;99.90;;;;;;5070397;28;20370;-68
2021/12/06 06:51:18;;;;;;;5.68;2.67;;;2.60;99.90;;;;;;5068170;28;20808;-68
2021/12/06 06:53:44;;;;;;;4.03;3.72;;;2.60;99.90;;;;;;5065008;28;20621;-68
2021/12/06 06:56:11;;;;;;;4.75;4.35;;;2.60;99.90;;;;;;5061027;28;20205;-69
2021/12/06 06:58:38;;;;;;;4.47;3.83;;;2.60;99.90;;;;;;5065788;28;20224;-67
2021/12/06 07:01:05;;;;;;;3.80;3.30;;;2.60;99.90;;;;;;5064482;28;20215;-68
2021/12/06 07:03:32;;;;;;;3.00;2.75;;;2.60;99.90;;;;;;5062313;28;20614;-68
2021/12/06 07:05:59;;;;;;;5.10;3.85;;;2.50;99.90;;;;;;5066815;28;20298;-67
2021/12/06 07:08:27;;;;;;;3.33;3.03;;;2.40;99.90;;;;;;5064497;28;20222;-67
2021/12/06 07:10:54;;;;;;;5.13;4.72;;;2.40;99.90;;;;;;5067609;28;20307;-67
2021/12/06 07:13:21;;;;;;;5.10;4.32;;;2.40;99.90;;;;;;5063378;28;20647;-67
2021/12/06 07:15:49;;;;;;;6.03;5.25;;;2.30;99.90;;;;;;5070095;28;20211;-67
2021/12/06 07:18:17;;;;;;;5.00;3.35;;;2.30;99.90;;;;;;5063275;28;20299;-69
2021/12/06 07:20:44;;;;;;;3.33;3.03;;;2.20;99.90;;;;;;5062797;28;20245;-69
2021/12/06 07:23:11;;;;;;;7.70;4.10;;;2.20;99.90;;;;;;5061004;28;20220;-68
2021/12/06 07:25:40;;;;;;;6.07;4.57;;;2.10;99.90;;;;;;5057536;28;20213;-69
2021/12/06 07:28:08;;;;;;;5.03;3.60;;;2.10;99.90;;;;;;5070803;28;20230;-69
2021/12/06 07:30:35;;;;;;;6.25;4.90;;;2.00;99.90;;;;;;5069555;28;20205;-69
2021/12/06 07:33:02;;;;;;;6.35;5.68;;;2.00;99.90;;;;;;5078124;28;20596;-69
2021/12/06 07:35:29;;;;;;;8.35;5.82;;;2.00;99.90;;;;;;5064675;28;20848;-69
2021/12/06 07:37:57;;;;;;;10.43;6.82;;;2.00;99.90;;;;;;5059282;28;20215;-69
2021/12/06 07:40:24;;;;;;;12.20;7.57;;;2.00;99.90;;;;;;5067441;28;20230;-69
2021/12/06 07:42:52;;;;;;;10.77;8.55;;;2.00;99.90;;;;;;5050752;28;20205;-68
2021/12/06 07:45:19;;;;;;;10.95;7.20;;;2.00;99.90;;;;;;5066134;28;20286;-68
2021/12/06 07:47:46;;;;;;;11.10;8.30;;;2.00;99.90;;;;;;5070862;28;20652;-68
2021/12/06 07:50:16;;;;;;;13.57;6.80;;;2.00;99.90;;;;;;5067926;28;20996;-67
2021/12/06 07:52:43;;;;;;;9.65;6.45;;;2.00;99.90;;;;;;5070041;28;20204;-69
2021/12/06 07:55:14;;;;;;;6.38;5.78;;;2.00;99.90;;;;;;5070305;28;20243;-66
2021/12/06 07:57:41;;;;;;;10.38;7.93;;;2.10;99.90;;;;;;5067136;28;20203;-68
2021/12/06 08:00:12;;;;;;;10.43;7.30;;;2.20;99.90;;;;;;5069077;28;20302;-66
2021/12/06 08:02:39;;;;;;;12.70;9.35;;;2.20;99.90;;;;;;5070198;28;20466;-69
2021/12/06 08:07:52;;;;;;;10.95;9.80;;;2.30;99.90;;;;;;5078360;28;20251;-68
2021/12/06 08:10:19;;;;;;;8.30;7.32;;;2.30;99.90;;;;;;5074665;28;20720;-68
2021/12/06 08:12:45;;;;;;;10.63;7.50;;;2.30;99.90;;;;;;5069536;28;20277;-69
2021/12/06 08:15:14;;;;;;;8.82;7.65;;;2.30;99.90;;;;;;5069675;28;20266;-68
2021/12/06 08:17:41;;;;;;;18.50;9.25;;;2.30;99.90;;;;;;5068643;28;20293;-68
2021/12/06 08:20:10;;;;;;;11.52;8.52;;;2.40;99.90;;;;;;5070535;28;20276;-69
2021/12/06 08:22:36;;;;;;;11.38;8.20;;;2.40;99.90;;;;;;5063027;28;20209;-68
2021/12/06 08:25:10;;;;;;;8.18;7.38;;;2.40;99.90;;;;;;5065886;28;20220;-68
2021/12/06 08:27:37;;;;;;;13.35;9.40;;;2.40;99.90;;;;;;5068348;28;20266;-69
2021/12/06 08:30:06;;;;;;;13.18;8.40;;;2.50;99.90;;;;;;5057323;28;20232;-68
2021/12/06 08:32:34;;;;;;;15.98;9.32;;;2.60;99.90;;;;;;5067017;28;20274;-68
2021/12/06 08:35:01;;;;;;;18.80;9.85;;;2.60;99.90;;;;;;5068596;28;20250;-68
2021/12/06 08:37:28;;;;;;;12.48;7.82;;;2.70;99.90;;;;;;5078327;28;20203;-69
2021/12/06 08:39:55;;;;;;;12.55;6.93;;;2.80;99.90;;;;;;5067356;28;20633;-68
2021/12/06 08:42:22;;;;;;;7.50;6.70;;;2.80;99.90;;;;;;5058174;28;20270;-69
2021/12/06 08:44:49;;;;;;;8.18;5.80;;;2.80;99.90;;;;;;5065100;28;20236;-71
2021/12/06 08:47:17;;;;;;;8.00;7.30;;;2.90;99.90;;;;;;5067202;28;20232;-70
2021/12/06 08:49:45;;;;;;;14.85;7.32;;;3.00;99.90;;;;;;5069411;28;20224;-68
2021/12/06 08:52:14;;;;;;;10.00;5.97;;;3.00;99.90;;;;;;5056765;28;20209;-68
2021/12/06 08:54:41;;;;;;;10.07;7.57;;;3.10;99.90;;;;;;5055430;28;20584;-68
2021/12/06 08:57:08;;;;;;;8.23;6.85;;;3.10;99.90;;;;;;5054116;28;20202;-68
2021/12/06 08:59:34;;;;;;;5.45;4.15;;;3.20;99.90;;;;;;5066419;28;20216;-68
2021/12/06 09:02:01;;;;;;;8.70;6.07;;;3.20;99.90;;;;;;5063573;28;20254;-68
2021/12/06 09:04:31;;;;;;;7.63;6.90;;;3.30;99.90;;;;;;5064110;28;20272;-68
2021/12/06 09:06:59;;;;;;;13.40;8.90;;;3.30;99.90;;;;;;5060328;28;20201;-68
2021/12/06 09:09:27;;;;;;;11.52;6.95;;;3.40;99.90;;;;;;5057653;28;20222;-68
2021/12/06 09:11:56;;;;;;;7.55;6.72;;;3.50;99.90;;;;;;5057302;28;20263;-68
2021/12/06 09:14:24;;;;;;;11.10;7.28;;;3.60;99.90;;;;;;5061406;28;20215;-68
2021/12/06 09:16:52;;;;;;;7.10;5.72;;;3.70;99.90;;;;;;5065966;28;20254;-68
2021/12/06 09:19:19;;;;;;;9.82;7.78;;;3.70;99.90;;;;;;5067586;28;20744;-67
2021/12/06 09:21:46;;;;;;;12.38;6.90;;;3.80;99.90;;;;;;5056062;28;20197;-68
2021/12/06 09:24:17;;;;;;;9.98;9.05;;;3.90;99.90;;;;;;5059577;28;20279;-68
2021/12/06 09:26:45;;;;;;;14.75;8.63;;;4.10;99.90;;;;;;5068190;28;20210;-69
2021/12/06 09:29:12;;;;;;;15.68;9.43;;;4.20;99.90;;;;;;5067610;28;20637;-68
2021/12/06 09:31:39;;;;;;;11.10;10.00;;;4.30;99.90;;;;;;5071058;28;20335;-67
2021/12/06 09:34:06;;;;;;;9.60;7.70;;;4.30;99.90;;;;;;5077153;28;20201;-67
2021/12/06 09:36:34;;;;;;;12.20;9.20;;;4.40;99.90;;;;;;5057677;28;20262;-68
2021/12/06 09:39:01;;;;;;;12.30;11.00;;;4.40;99.90;;;;;;5061222;28;20670;-67
2021/12/06 09:41:29;;;;;;;11.90;9.55;;;4.30;99.90;;;;;;5064855;28;20926;-68
2021/12/06 09:44:04;;;;;;;19.30;10.02;;;4.30;99.90;;;;;;5061736;28;20228;-68
2021/12/06 09:46:35;;;;;;;11.90;9.90;;;4.30;99.90;;;;;;5058388;28;20200;-67
2021/12/06 09:49:03;;;;;;;9.88;8.90;;;4.30;99.90;;;;;;5053280;28;20233;-68
2021/12/06 09:51:30;;;;;;;16.08;8.35;;;4.40;99.90;;;;;;5072137;28;20584;-68
2021/12/06 09:54:00;;;;;;;14.98;10.30;;;4.40;99.90;;;;;;5073718;28;20208;-68
2021/12/06 09:56:32;;;;;;;10.50;8.65;;;4.40;99.90;;;;;;5065639;28;20660;-68
2021/12/06 09:59:01;;;;;;;11.40;8.43;;;4.40;99.90;;;;;;5056453;28;20291;-68
2021/12/06 10:01:32;;;;;;;14.15;8.77;;;4.40;99.90;;;;;;5065772;28;20234;-69
2021/12/06 10:04:01;;;;;;;14.35;10.32;;;4.40;99.90;;;;;;5067921;28;20204;-67
2021/12/06 10:06:30;;;;;;;11.80;9.10;;;4.30;99.90;;;;;;5068265;28;20217;-68
2021/12/06 10:08:59;;;;;;;14.50;9.35;;;4.30;99.90;;;;;;5061694;28;20233;-66
2021/12/06 10:11:27;;;;;;;12.52;8.48;;;4.40;99.90;;;;;;5062075;28;20689;-68
2021/12/06 10:13:56;;;;;;;13.70;10.25;;;4.50;99.90;;;;;;5063395;28;20280;-68
2021/12/06 10:16:24;;;;;;;11.60;9.52;;;4.60;99.90;;;;;;5070947;28;20675;-67
2021/12/06 10:18:51;;;;;;;10.60;8.15;;;4.70;99.90;;;;;;5063356;28;20508;-70
2021/12/06 10:21:19;;;;;;;12.48;7.38;;;4.70;99.90;;;;;;5070388;28;20684;-69
2021/12/06 10:23:46;;;;;;;11.73;7.97;;;4.60;99.90;;;;;;5068793;28;20201;-67
2021/12/06 10:26:17;;;;;;;10.23;8.32;;;4.60;99.90;;;;;;5070044;28;20225;-70
2021/12/06 10:28:44;;;;;;;12.63;9.63;;;4.60;99.90;;;;;;5051849;28;20313;-70
2021/12/06 10:31:14;;;;;;;11.75;8.77;;;4.70;99.90;;;;;;5064978;28;20251;-68
2021/12/06 10:33:44;;;;;;;13.40;8.02;;;4.70;99.90;;;;;;5071143;28;20206;-69
2021/12/06 10:36:15;;;;;;;14.23;9.38;;;4.70;99.90;;;;;;5073858;28;20200;-69
2021/12/06 10:38:47;;;;;;;12.80;7.28;;;4.70;99.90;;;;;;5068937;28;20264;-69
2021/12/06 10:41:16;;;;;;;9.85;7.28;;;4.70;99.90;;;;;;5065738;28;20569;-70
2021/12/06 10:43:51;;;;;;;14.95;8.82;;;4.80;99.90;;;;;;5065459;28;20202;-68
2021/12/06 10:46:19;;;;;;;10.43;8.20;;;4.80;99.90;;;;;;5063029;28;20230;-67
2021/12/06 10:48:47;;;;;;;15.55;9.25;;;5.00;99.90;;;;;;5052877;28;20242;-69
2021/12/06 10:51:18;;;;;;;13.55;8.20;;;5.00;99.90;;;;;;5070197;28;20285;-69
2021/12/06 10:53:57;;;;;;;12.15;7.80;;;5.00;99.90;;;;;;5069584;28;20724;-68
2021/12/06 10:56:31;;;;;;;9.98;7.07;;;5.00;99.90;;;;;;5065388;28;20207;-69
2021/12/06 10:59:03;;;;;;;11.27;6.70;;;5.00;99.90;;;;;;5056658;28;20225;-68
2021/12/06 11:01:33;;;;;;;9.57;8.00;;;5.00;99.90;;;;;;5073377;28;20208;-69
2021/12/06 11:04:03;;;;;;;8.45;6.53;;;5.00;99.90;;;;;;5066222;28;20246;-69
2021/12/06 11:06:32;;;;;;;9.27;6.22;;;5.10;99.90;;;;;;5067513;28;20199;-70
2021/12/06 11:09:01;;;;;;;11.18;8.80;;;5.10;99.90;;;;;;5066599;28;20232;-70
2021/12/06 11:11:31;;;;;;;12.18;8.23;;;5.10;99.90;;;;;;5067238;28;20724;-70
2021/12/06 11:14:00;;;;;;;7.18;6.18;;;5.20;99.90;;;;;;5061845;28;20301;-70
2021/12/06 11:16:28;;;;;;;9.15;7.82;;;5.40;99.90;;;;;;5057273;28;20742;-69
2021/12/06 11:18:59;;;;;;;8.77;6.82;;;5.60;99.90;;;;;;5060952;28;20226;-70
2021/12/06 11:21:36;;;;;;;9.30;6.82;;;5.80;99.90;;;;;;5063469;28;20218;-68
2021/12/06 11:24:16;;;;;;;7.55;6.72;;;5.90;99.90;;;;;;5071021;28;20202;-67
2021/12/06 11:26:47;;;;;;;12.93;8.43;;;6.00;99.90;;;;;;5069244;28;20201;-68
2021/12/06 11:29:25;;;;;;;8.57;7.40;;;6.20;99.90;;;;;;5066552;28;20222;-68
2021/12/06 11:31:56;;;;;;;13.60;6.82;;;6.30;99.90;;;;;;5070387;28;20202;-68
2021/12/06 11:34:27;;;;;;;11.27;7.07;;;6.40;99.90;;;;;;5070730;28;20203;-68
2021/12/06 11:36:55;;;;;;;9.75;8.05;;;6.60;99.90;;;;;;5057040;28;20212;-68
2021/12/06 11:39:23;;;;;;;9.15;7.80;;;6.90;99.90;;;;;;5068494;28;20318;-67
2021/12/06 11:41:52;;;;;;;9.02;6.93;;;7.20;99.90;;;;;;5070695;28;20204;-68
2021/12/06 11:44:25;;;;;;;7.88;7.10;;;7.50;99.90;;;;;;5081119;28;20234;-67
2021/12/06 11:46:58;;;;;;;8.47;7.20;;;7.80;99.90;;;;;;5074128;28;20816;-68
2021/12/06 11:49:31;;;;;;;8.07;7.28;;;8.00;99.90;;;;;;5099368;22;20507;-66
2021/12/06 11:51:59;;;;;;;9.00;7.00;;;8.20;99.90;;;;;;5068177;28;20200;-66
2021/12/06 11:54:25;;;;;;;9.13;7.50;;;8.40;99.90;;;;;;5070141;28;21012;-67
2021/12/06 11:56:52;;;;;;;8.80;6.77;;;8.70;99.90;;;;;;5078356;28;20504;-67
2021/12/06 11:59:20;;;;;;;11.27;6.57;;;9.00;99.90;;;;;;5078480;28;20485;-67
2021/12/06 12:01:51;;;;;;;12.37;7.50;;;9.20;99.90;;;;;;5067647;28;20489;-67
2021/12/06 12:04:21;;;;;;;11.70;6.97;;;9.60;99.90;;;;;;5065599;28;20452;-67
2021/12/06 12:06:51;;;;;;;14.77;7.40;;;9.70;99.90;;;;;;5082737;28;20469;-67
2021/12/06 12:09:21;;;;;;;8.07;6.40;;;9.90;99.90;;;;;;5084592;28;20471;-67
2021/12/06 12:12:01;;;;;;;7.37;5.13;;;10.10;99.90;;;;;;5081089;28;20522;-66
2021/12/06 12:14:30;;;;;;;7.77;6.03;;;10.30;99.90;;;;;;5062171;28;20451;-67
2021/12/06 12:17:00;;;;;;;6.97;6.10;;;10.50;99.90;;;;;;5073249;28;20556;-66
2021/12/06 12:19:27;;;;;;;8.60;6.50;;;10.70;99.90;;;;;;5077492;28;20470;-69
2021/12/06 12:21:55;;;;;;;6.47;5.67;;;10.80;99.90;;;;;;5079378;28;20456;-67
2021/12/06 12:24:22;;;;;;;7.10;5.73;;;10.90;99.90;;;;;;5068276;28;20844;-68
2021/12/06 12:27:00;;;;;;;5.80;5.20;;;10.80;99.90;;;;;;5086639;28;20637;-67
2021/12/06 12:29:28;;;;;;;5.40;4.57;;;10.80;99.90;;;;;;5072408;28;20830;-68
2021/12/06 12:31:58;;;;;;;5.30;4.80;;;11.00;99.90;;;;;;5061128;28;20448;-68
2021/12/06 12:34:26;;;;;;;5.43;4.80;;;11.30;99.90;;;;;;5068989;28;20452;-72
2021/12/06 12:36:55;;;;;;;4.30;3.83;;;11.60;99.90;;;;;;5071750;28;20461;-71
2021/12/06 12:39:23;;;;;;;7.40;4.70;;;11.50;99.90;;;;;;5059958;28;20558;-71
2021/12/06 12:41:53;;;;;;;6.73;3.90;;;11.10;99.90;;;;;;5063961;28;20500;-69
2021/12/06 12:44:21;;;;;;;5.97;4.90;;;10.90;99.90;;;;;;5055846;28;20527;-68
2021/12/06 12:46:52;;;;;;;5.13;4.63;;;11.00;99.90;;;;;;5062781;28;20603;-68
2021/12/06 12:49:22;;;;;;;4.87;4.47;;;11.20;99.90;;;;;;5072369;28;20581;-68
2021/12/06 12:51:52;;;;;;;6.82;4.13;;;11.50;99.90;;;;;;5059603;28;20432;-72
2021/12/06 12:54:24;;;;;;;4.30;3.90;;;11.80;99.90;;;;;;5063623;28;20780;-72
2021/12/06 12:56:54;;;;;;;9.00;4.23;;;11.80;99.90;;;;;;5055807;28;20463;-72
2021/12/06 12:59:31;;;;;;;4.67;4.20;;;11.60;99.90;;;;;;5079908;28;20476;-72
2021/12/06 13:02:21;;;;;;;3.83;3.17;;;11.30;99.90;;;;;;5072042;28;21006;-73
2021/12/06 13:05:15;;;;;;;6.57;3.43;;;11.00;99.90;;;;;;5064174;28;20878;-72
2021/12/06 13:08:03;;;;;;;6.67;4.77;;;10.70;99.90;;;;;;5064778;28;20527;-71
2021/12/06 13:10:47;;;;;;;4.13;3.73;;;10.50;99.90;;;;;;5073555;28;20498;-69
2021/12/06 13:13:20;;;;;;;4.40;3.70;;;10.40;99.90;;;;;;5061302;28;21069;-71